createdAt,value
2018-01-15T00:02:06.014Z,3.90
2018-01-15T00:04:34.872Z,3.90
2018-01-15T00:07:04.517Z,3.80
2018-01-15T00:09:33.365Z,3.80
2018-01-15T00:12:03.016Z,3.70
2018-01-15T00:14:32.273Z,3.60
2018-01-15T00:17:01.903Z,3.80
2018-01-15T00:19:31.494Z,3.80
2018-01-15T00:22:01.139Z,3.80
2018-01-15T00:24:29.982Z,3.80
2018-01-15T00:26:58.835Z,3.90
2018-01-15T00:29:28.455Z,4.00
2018-01-15T00:31:57.289Z,3.90
2018-01-15T00:34:26.444Z,4.00
2018-01-15T00:36:55.281Z,4.00
2018-01-15T00:39:24.138Z,4.00
2018-01-15T00:41:53.212Z,4.00
2018-01-15T00:44:22.030Z,4.10
2018-01-15T00:46:51.419Z,4.00
2018-01-15T00:49:20.483Z,3.90
2018-01-15T00:51:49.369Z,3.90
2018-01-15T00:54:18.970Z,4.00
2018-01-15T00:56:48.573Z,4.00
2018-01-15T00:59:18.177Z,4.10
2018-01-15T01:01:47.791Z,4.10
2018-01-15T01:04:17.434Z,4.20
2018-01-15T01:06:46.274Z,4.20
2018-01-15T01:09:15.903Z,4.00
2018-01-15T01:11:44.738Z,4.00
2018-01-15T01:14:13.579Z,4.10
2018-01-15T01:16:43.178Z,4.00
2018-01-15T01:19:12.811Z,3.90
2018-01-15T01:21:41.669Z,3.80
2018-01-15T01:24:11.282Z,3.80
2018-01-15T01:26:40.971Z,3.90
2018-01-15T01:29:09.789Z,3.80
2018-01-15T01:31:38.641Z,4.00
2018-01-15T01:34:08.276Z,4.00
2018-01-15T01:36:37.121Z,3.90
2018-01-15T01:39:05.961Z,4.00
2018-01-15T01:41:34.807Z,4.00
2018-01-15T01:44:05.146Z,4.30
2018-01-15T01:46:34.041Z,4.20
2018-01-15T01:49:03.738Z,4.20
2018-01-15T01:51:33.346Z,4.20
2018-01-15T01:54:02.978Z,4.10
2018-01-15T01:56:31.874Z,4.10
2018-01-15T01:59:01.221Z,4.20
2018-01-15T02:01:30.071Z,4.10
2018-01-15T02:03:58.918Z,4.10
2018-01-15T02:06:28.531Z,4.20
2018-01-15T02:08:58.147Z,4.30
2018-01-15T02:11:27.774Z,4.30
2018-01-15T02:13:56.590Z,4.30
2018-01-15T02:16:25.453Z,4.30
2018-01-15T02:18:54.353Z,4.20
2018-01-15T02:21:23.230Z,4.20
2018-01-15T02:23:52.069Z,4.20
2018-01-15T02:26:22.441Z,4.00
2018-01-15T02:28:51.288Z,4.00
2018-01-15T02:31:20.122Z,3.90
2018-01-15T02:33:49.954Z,3.90
2018-01-15T02:36:19.569Z,3.80
2018-01-15T02:38:49.170Z,3.80
2018-01-15T02:41:18.780Z,3.80
2018-01-15T02:43:48.394Z,3.90
2018-01-15T02:46:17.226Z,3.80
2018-01-15T02:48:46.062Z,3.90
2018-01-15T02:51:15.677Z,3.90
2018-01-15T02:53:44.741Z,3.80
2018-01-15T02:56:13.583Z,3.90
2018-01-15T02:58:42.434Z,3.90
2018-01-15T03:01:12.038Z,3.90
2018-01-15T03:03:41.658Z,3.90
2018-01-15T03:06:11.593Z,3.80
2018-01-15T03:08:40.434Z,3.80
2018-01-15T03:11:09.289Z,4.00
2018-01-15T03:13:38.118Z,4.10
2018-01-15T03:16:07.734Z,4.20
2018-01-15T03:18:37.366Z,4.30
2018-01-15T03:21:06.218Z,4.20
2018-01-15T03:23:35.061Z,4.30
2018-01-15T03:26:03.900Z,4.40
2018-01-15T03:28:32.746Z,4.30
2018-01-15T03:31:01.588Z,4.40
2018-01-15T03:33:30.442Z,4.50
2018-01-15T03:36:00.790Z,4.60
2018-01-15T03:38:29.612Z,4.50
2018-01-15T03:40:58.994Z,4.50
2018-01-15T03:43:27.845Z,4.50
2018-01-15T03:45:57.489Z,4.40
2018-01-15T03:48:26.335Z,4.40
2018-01-15T03:50:56.440Z,4.60
2018-01-15T03:53:26.787Z,4.50
2018-01-15T03:55:56.390Z,4.60
2018-01-15T03:58:26.001Z,4.70
2018-01-15T04:00:55.610Z,4.70
2018-01-15T04:03:25.230Z,4.80
2018-01-15T04:05:54.076Z,4.70
2018-01-15T04:08:22.935Z,4.80
2018-01-15T04:10:51.770Z,4.90
2018-01-15T04:13:21.426Z,4.80
2018-01-15T04:15:50.254Z,4.80
2018-01-15T04:18:19.119Z,4.80
2018-01-15T04:20:47.936Z,4.90
2018-01-15T04:23:16.774Z,4.90
2018-01-15T04:25:45.631Z,5.00
2018-01-15T04:28:15.246Z,5.00
2018-01-15T04:30:44.810Z,4.90
2018-01-15T04:33:14.414Z,4.80
2018-01-15T04:35:44.018Z,4.80
2018-01-15T04:38:13.616Z,4.80
2018-01-15T04:40:43.240Z,4.90
2018-01-15T04:43:12.845Z,4.90
2018-01-15T04:45:42.464Z,4.80
2018-01-15T04:48:12.061Z,4.70
2018-01-15T04:50:41.238Z,4.70
2018-01-15T04:53:10.069Z,4.70
2018-01-15T04:55:38.930Z,4.70
2018-01-15T04:58:08.537Z,4.70
2018-01-15T05:00:38.153Z,4.70
2018-01-15T05:03:07.013Z,4.60
2018-01-15T05:05:35.874Z,4.70
2018-01-15T05:08:06.289Z,4.80
2018-01-15T05:10:35.142Z,4.70
2018-01-15T05:13:04.745Z,4.80
2018-01-15T05:15:35.690Z,4.70
2018-01-15T05:18:05.301Z,4.80
2018-01-15T05:20:34.909Z,4.80
2018-01-15T05:23:04.519Z,4.70
2018-01-15T05:25:33.386Z,4.70
2018-01-15T05:28:02.223Z,4.80
2018-01-15T05:30:31.098Z,4.80
2018-01-15T05:33:00.778Z,4.80
2018-01-15T05:35:29.631Z,4.90
2018-01-15T05:37:59.986Z,4.90
2018-01-15T05:40:28.878Z,4.90
2018-01-15T05:42:58.478Z,5.00
2018-01-15T05:45:27.346Z,4.90
2018-01-15T05:47:56.938Z,5.00
2018-01-15T05:50:26.561Z,5.00
2018-01-15T05:52:56.166Z,4.90
2018-01-15T05:55:25.798Z,4.90
2018-01-15T05:57:54.609Z,4.90
2018-01-15T06:00:23.479Z,4.90
2018-01-15T06:02:52.330Z,4.80
2018-01-15T06:05:21.949Z,4.80
2018-01-15T06:07:51.555Z,4.80
2018-01-15T06:10:21.161Z,4.80
2018-01-15T06:12:50.825Z,4.80
2018-01-15T06:15:20.395Z,4.90
2018-01-15T06:17:49.986Z,4.90
2018-01-15T06:20:19.614Z,4.90
2018-01-15T06:22:49.213Z,4.90
2018-01-15T06:25:18.072Z,4.90
2018-01-15T06:27:46.926Z,5.00
2018-01-15T06:30:15.777Z,5.00
2018-01-15T06:32:46.697Z,5.10
2018-01-15T06:35:15.596Z,5.10
2018-01-15T06:37:44.485Z,5.20
2018-01-15T06:40:13.319Z,5.20
2018-01-15T06:42:42.171Z,5.20
2018-01-15T06:45:10.997Z,5.20
2018-01-15T06:47:39.846Z,5.20
2018-01-15T06:50:08.690Z,5.30
2018-01-15T06:52:38.315Z,5.20
2018-01-15T06:55:07.927Z,5.20
2018-01-15T06:57:36.750Z,5.20
2018-01-15T07:00:05.598Z,5.20
2018-01-15T07:02:35.190Z,5.30
2018-01-15T07:05:04.833Z,5.30
2018-01-15T07:07:33.664Z,5.20
2018-01-15T07:10:02.486Z,5.40
2018-01-15T07:12:32.102Z,5.40
2018-01-15T07:15:00.934Z,5.30
2018-01-15T07:17:29.798Z,5.40
2018-01-15T07:19:58.638Z,5.40
2018-01-15T07:22:27.478Z,5.50
2018-01-15T07:24:56.325Z,5.50
2018-01-15T07:27:25.160Z,5.50
2018-01-15T07:29:54.024Z,5.50
2018-01-15T07:32:22.869Z,5.40
2018-01-15T07:34:52.466Z,5.40
2018-01-15T07:37:22.074Z,5.50
2018-01-15T07:39:51.678Z,5.50
2018-01-15T07:42:21.295Z,5.50
2018-01-15T07:44:50.217Z,5.50
2018-01-15T07:47:19.097Z,5.60
2018-01-15T07:49:47.947Z,5.60
2018-01-15T07:52:17.585Z,5.70
2018-01-15T07:54:46.431Z,5.70
2018-01-15T07:57:16.052Z,5.80
2018-01-15T07:59:45.650Z,5.80
2018-01-15T08:02:14.498Z,5.70
2018-01-15T08:04:43.335Z,5.70
2018-01-15T08:07:12.935Z,5.90
2018-01-15T08:09:41.782Z,5.80
2018-01-15T08:12:10.657Z,5.80
2018-01-15T08:14:43.247Z,5.90
2018-01-15T08:17:12.134Z,5.80
2018-01-15T08:19:40.977Z,5.90
2018-01-15T08:22:10.571Z,6.10
2018-01-15T08:24:40.285Z,6.10
2018-01-15T08:27:09.121Z,6.10
2018-01-15T08:29:38.063Z,6.10
2018-01-15T08:32:07.674Z,6.10
2018-01-15T08:34:37.333Z,6.10
2018-01-15T08:37:06.146Z,6.10
2018-01-15T08:39:35.084Z,6.20
2018-01-15T08:42:04.702Z,6.30
2018-01-15T08:44:33.542Z,6.30
2018-01-15T08:47:02.585Z,6.40
2018-01-15T08:49:31.433Z,6.40
2018-01-15T08:52:00.739Z,6.30
2018-01-15T08:54:29.561Z,6.40
2018-01-15T08:56:58.414Z,6.40
2018-01-15T08:59:28.034Z,6.40
2018-01-15T09:01:57.646Z,6.50
2018-01-15T09:04:27.250Z,6.50
2018-01-15T09:06:56.882Z,6.50
2018-01-15T09:09:25.721Z,6.50
2018-01-15T09:11:54.556Z,6.50
2018-01-15T09:14:23.550Z,6.60
2018-01-15T09:16:52.389Z,6.70
2018-01-15T09:19:21.324Z,6.70
2018-01-15T09:21:51.127Z,6.60
2018-01-15T09:24:19.939Z,6.60
2018-01-15T09:26:48.773Z,6.60
2018-01-15T09:29:17.611Z,6.60
2018-01-15T09:31:46.445Z,6.60
2018-01-15T09:34:15.854Z,6.70
2018-01-15T09:36:44.733Z,6.70
2018-01-15T09:39:13.553Z,6.70
2018-01-15T09:41:42.398Z,6.70
2018-01-15T09:44:12.032Z,6.70
2018-01-15T09:46:40.899Z,6.70
2018-01-15T09:49:09.762Z,6.80
2018-01-15T09:51:38.590Z,6.90
2018-01-15T09:54:07.448Z,7.00
2018-01-15T09:56:37.045Z,7.00
2018-01-15T09:59:06.806Z,7.00
2018-01-15T10:01:35.668Z,7.10
2018-01-15T10:04:05.283Z,7.20
2018-01-15T10:06:34.146Z,7.20
2018-01-15T10:09:03.759Z,7.40
2018-01-15T10:11:33.381Z,7.50
2018-01-15T10:14:02.985Z,7.50
2018-01-15T10:16:32.626Z,7.50
2018-01-15T10:19:01.498Z,7.40
2018-01-15T10:21:30.342Z,7.40
2018-01-15T10:23:59.206Z,7.50
2018-01-15T10:26:28.074Z,7.50
2018-01-15T10:28:56.926Z,7.50
2018-01-15T10:31:25.758Z,7.50
2018-01-15T10:33:54.601Z,7.50
2018-01-15T10:36:23.438Z,7.60
2018-01-15T10:38:53.910Z,7.70
2018-01-15T10:41:22.737Z,7.70
2018-01-15T10:43:51.605Z,7.70
2018-01-15T10:46:20.438Z,7.90
2018-01-15T10:48:49.271Z,7.90
2018-01-15T10:51:18.120Z,7.90
2018-01-15T10:53:46.962Z,7.90
2018-01-15T10:56:15.827Z,7.90
2018-01-15T10:58:45.449Z,7.90
2018-01-15T11:01:20.042Z,7.90
2018-01-15T11:03:49.657Z,7.90
2018-01-15T11:06:19.269Z,8.00
2018-01-15T11:08:48.119Z,7.90
2018-01-15T11:11:16.964Z,7.90
2018-01-15T11:13:45.776Z,8.00
2018-01-15T11:16:14.668Z,7.90
2018-01-15T11:18:43.478Z,7.90
2018-01-15T11:21:12.361Z,8.00
2018-01-15T11:23:41.207Z,8.00
2018-01-15T11:26:10.041Z,8.00
2018-01-15T11:28:38.886Z,8.00
2018-01-15T11:31:07.726Z,7.90
2018-01-15T11:33:37.120Z,8.00
2018-01-15T11:36:06.597Z,8.10
2018-01-15T11:38:36.237Z,8.10
2018-01-15T11:41:05.137Z,8.10
2018-01-15T11:43:34.000Z,8.10
2018-01-15T11:46:03.597Z,7.90
2018-01-15T11:48:33.805Z,7.80
2018-01-15T11:51:03.419Z,7.90
2018-01-15T11:53:33.053Z,8.00
2018-01-15T11:56:01.865Z,7.90
2018-01-15T11:58:30.722Z,8.00
2018-01-15T12:00:59.564Z,8.00
2018-01-15T12:03:28.400Z,8.10
2018-01-15T12:05:58.005Z,7.90
2018-01-15T12:08:27.580Z,7.90
2018-01-15T12:10:56.422Z,7.90
2018-01-15T12:13:25.253Z,8.00
2018-01-15T12:15:54.106Z,8.10
2018-01-15T12:18:22.936Z,8.00
2018-01-15T12:20:51.773Z,8.00
2018-01-15T12:23:20.610Z,7.90
2018-01-15T12:25:49.469Z,8.00
2018-01-15T12:28:18.342Z,8.00
2018-01-15T12:30:47.954Z,8.00
2018-01-15T12:33:16.796Z,7.90
2018-01-15T12:35:45.674Z,8.00
2018-01-15T12:38:14.513Z,8.00
2018-01-15T12:40:43.326Z,7.90
2018-01-15T12:43:13.648Z,7.90
2018-01-15T12:45:43.255Z,7.80
2018-01-15T12:48:12.871Z,7.70
2018-01-15T12:50:42.481Z,7.60
2018-01-15T12:53:12.090Z,7.70
2018-01-15T12:55:40.941Z,7.60
2018-01-15T12:58:09.796Z,7.70
2018-01-15T13:00:38.626Z,7.70
2018-01-15T13:03:07.461Z,7.60
2018-01-15T13:05:48.030Z,7.60
2018-01-15T13:11:25.189Z,7.70
2018-01-15T13:13:54.341Z,7.70
2018-01-15T13:16:23.210Z,7.70
2018-01-15T13:18:52.061Z,7.60
2018-01-15T13:21:20.907Z,7.50
2018-01-15T13:23:49.753Z,7.60
2018-01-15T13:26:19.390Z,7.80
2018-01-15T13:28:48.234Z,7.80
2018-01-15T13:31:17.109Z,7.80
2018-01-15T13:33:45.973Z,7.70
2018-01-15T13:36:15.674Z,7.70
2018-01-15T13:38:44.534Z,7.70
2018-01-15T13:41:13.518Z,7.80
2018-01-15T13:43:43.201Z,7.60
2018-01-15T13:46:12.042Z,7.60
2018-01-15T13:48:40.904Z,7.60
2018-01-15T13:51:10.522Z,7.70
2018-01-15T13:53:40.146Z,7.80
2018-01-15T13:56:09.194Z,7.80
2018-01-15T13:58:38.034Z,8.00
2018-01-15T14:01:06.882Z,7.90
2018-01-15T14:03:36.502Z,7.80
2018-01-15T14:06:05.789Z,7.80
2018-01-15T14:08:35.419Z,7.60
2018-01-15T14:11:05.067Z,7.50
2018-01-15T14:13:33.938Z,7.50
2018-01-15T14:16:02.770Z,7.50
2018-01-15T14:18:31.637Z,7.40
2018-01-15T14:21:00.490Z,7.40
2018-01-15T14:23:30.106Z,7.10
2018-01-15T14:25:59.286Z,7.10
2018-01-15T14:28:28.884Z,6.80
2018-01-15T14:30:58.477Z,6.70
2018-01-15T14:33:28.115Z,6.60
2018-01-15T14:35:56.969Z,6.60
2018-01-15T14:38:25.838Z,6.50
2018-01-15T14:40:55.085Z,6.50
2018-01-15T14:43:23.931Z,6.40
2018-01-15T14:45:52.778Z,6.40
2018-01-15T14:48:22.393Z,6.30
2018-01-15T14:50:52.018Z,6.30
2018-01-15T14:53:20.860Z,6.30
2018-01-15T14:58:25.784Z,6.20
2018-01-15T15:00:54.637Z,6.20
2018-01-15T15:03:24.239Z,6.20
2018-01-15T15:05:53.857Z,6.20
2018-01-15T15:08:23.454Z,6.20
2018-01-15T15:10:53.086Z,6.10
2018-01-15T15:13:21.917Z,6.00
2018-01-15T15:15:50.778Z,6.00
2018-01-15T15:18:20.426Z,6.10
2018-01-15T15:20:49.321Z,6.20
2018-01-15T15:23:18.159Z,6.20
2018-01-15T15:25:47.878Z,6.20
2018-01-15T15:28:16.704Z,6.10
2018-01-15T15:30:45.541Z,6.10
2018-01-15T15:33:14.587Z,6.10
2018-01-15T15:35:43.418Z,6.20
2018-01-15T15:38:12.243Z,6.20
2018-01-15T15:40:41.477Z,6.00
2018-01-15T15:43:10.317Z,6.10
2018-01-15T15:45:39.912Z,6.10
2018-01-15T15:48:08.838Z,6.10
2018-01-15T15:50:37.687Z,6.20
2018-01-15T15:53:06.533Z,6.20
2018-01-15T15:55:35.496Z,6.30
2018-01-15T15:58:05.130Z,6.10
2018-01-15T16:00:34.613Z,6.10
2018-01-15T16:03:04.236Z,6.20
2018-01-15T16:05:34.341Z,6.20
2018-01-15T16:08:03.944Z,6.20
2018-01-15T16:10:33.448Z,6.20
2018-01-15T16:13:02.250Z,6.20
2018-01-15T16:15:31.099Z,6.30
2018-01-15T16:17:59.947Z,6.30
2018-01-15T16:20:28.780Z,6.20
2018-01-15T16:22:58.548Z,6.10
2018-01-15T16:25:27.396Z,6.10
2018-01-15T16:27:56.993Z,6.20
2018-01-15T16:30:25.856Z,6.10
2018-01-15T16:32:54.700Z,6.20
2018-01-15T16:35:23.550Z,6.10
2018-01-15T16:37:52.409Z,6.00
2018-01-15T16:40:21.286Z,6.10
2018-01-15T16:42:50.086Z,6.10
2018-01-15T16:45:18.944Z,6.10
2018-01-15T16:47:47.773Z,6.10
2018-01-15T16:50:23.163Z,6.10
2018-01-15T16:52:52.071Z,6.10
2018-01-15T16:55:20.880Z,6.20
2018-01-15T16:57:49.732Z,6.20
2018-01-15T17:00:18.570Z,6.20
2018-01-15T17:02:48.266Z,6.20
2018-01-15T17:05:17.975Z,6.10
2018-01-15T17:07:46.798Z,6.30
2018-01-15T17:10:15.657Z,6.20
2018-01-15T17:12:44.485Z,6.20
2018-01-15T17:15:13.348Z,6.30
2018-01-15T17:17:42.932Z,6.30
2018-01-15T17:20:11.760Z,6.20
2018-01-15T17:22:40.645Z,6.30
2018-01-15T17:25:10.253Z,6.30
2018-01-15T17:27:39.269Z,6.20
2018-01-15T17:30:08.127Z,6.10
2018-01-15T17:32:37.746Z,6.00
2018-01-15T17:35:06.590Z,5.90
2018-01-15T17:37:39.625Z,5.90
2018-01-15T17:40:09.944Z,5.80
2018-01-15T17:42:39.569Z,5.80
2018-01-15T17:45:08.370Z,5.70
2018-01-15T17:47:37.453Z,5.80
2018-01-15T17:50:06.302Z,5.80
2018-01-15T17:52:35.173Z,5.80
2018-01-15T17:55:04.021Z,5.80
2018-01-15T17:57:32.877Z,5.70
2018-01-15T18:00:02.469Z,5.70
2018-01-15T18:02:32.264Z,5.70
2018-01-15T18:05:01.144Z,5.70
2018-01-15T18:07:29.980Z,5.70
2018-01-15T18:09:59.616Z,5.60
2018-01-15T18:12:28.462Z,5.50
2018-01-15T18:14:57.336Z,5.60
2018-01-15T18:17:26.160Z,5.60
2018-01-15T18:19:55.795Z,5.50
2018-01-15T18:22:24.682Z,5.50
2018-01-15T18:24:53.561Z,5.50
2018-01-15T18:27:22.418Z,5.60
2018-01-15T18:29:52.787Z,5.60
2018-01-15T18:32:21.636Z,5.60
2018-01-15T18:34:50.544Z,5.50
2018-01-15T18:37:20.152Z,5.50
2018-01-15T18:39:49.023Z,5.40
2018-01-15T18:42:17.950Z,5.50
2018-01-15T18:44:47.609Z,5.50
2018-01-15T18:47:17.266Z,5.60
2018-01-15T18:49:46.134Z,5.60
2018-01-15T18:52:14.980Z,5.60
2018-01-15T18:54:43.827Z,5.60
2018-01-15T18:57:12.906Z,5.60
2018-01-15T18:59:42.625Z,5.60
2018-01-15T19:02:11.441Z,5.50
2018-01-15T19:04:40.285Z,5.60
2018-01-15T19:07:09.965Z,5.50
2018-01-15T19:09:38.809Z,5.50
2018-01-15T19:12:07.660Z,5.60
2018-01-15T19:14:37.381Z,5.60
2018-01-15T19:17:06.986Z,5.60
2018-01-15T19:19:36.600Z,5.70
2018-01-15T19:22:06.221Z,5.70
2018-01-15T19:24:35.085Z,5.60
2018-01-15T19:27:03.910Z,5.70
2018-01-15T19:29:32.754Z,5.70
2018-01-15T19:32:01.898Z,5.70
2018-01-15T19:34:37.855Z,5.70
2018-01-15T19:37:07.727Z,5.80
2018-01-15T19:39:37.314Z,5.80
2018-01-15T19:42:06.928Z,5.80
2018-01-15T19:44:42.135Z,5.80
2018-01-15T19:47:16.708Z,5.80
2018-01-15T19:52:59.910Z,5.80
2018-01-15T19:55:34.523Z,5.90
2018-01-15T19:58:09.201Z,5.90
2018-01-15T20:00:44.037Z,6.00
2018-01-15T20:03:18.508Z,6.10
2018-01-15T20:05:53.062Z,6.10
2018-01-15T20:08:28.487Z,6.10
2018-01-15T20:10:57.373Z,6.10
2018-01-15T20:13:26.217Z,6.10
2018-01-15T20:15:55.078Z,6.20
2018-01-15T20:18:24.714Z,6.20
2018-01-15T20:20:53.619Z,6.20
2018-01-15T20:23:22.490Z,6.20
2018-01-15T20:25:51.331Z,6.20
2018-01-15T20:28:20.282Z,6.20
2018-01-15T20:30:49.132Z,6.20
2018-01-15T20:33:18.766Z,6.30
2018-01-15T20:35:48.346Z,6.20
2018-01-15T20:38:17.978Z,6.30
2018-01-15T20:40:46.819Z,6.30
2018-01-15T20:43:15.645Z,6.30
2018-01-15T20:45:44.486Z,6.30
2018-01-15T20:48:13.324Z,6.30
2018-01-15T20:50:42.155Z,6.40
2018-01-15T20:53:11.037Z,6.40
2018-01-15T20:55:39.849Z,6.40
2018-01-15T20:58:08.679Z,6.40
2018-01-15T21:00:39.507Z,6.30
2018-01-15T21:03:08.362Z,6.30
2018-01-15T21:05:42.821Z,6.30
2018-01-15T21:08:11.681Z,6.30
2018-01-15T21:10:41.620Z,6.30
2018-01-15T21:13:10.425Z,6.30
2018-01-15T21:15:39.271Z,6.30
2018-01-15T21:18:08.890Z,6.40
2018-01-15T21:20:38.521Z,6.40
2018-01-15T21:23:07.352Z,6.30
2018-01-15T21:25:36.190Z,6.40
2018-01-15T21:28:05.029Z,6.50
2018-01-15T21:30:33.850Z,6.50
2018-01-15T21:33:03.450Z,6.40
2018-01-15T21:35:33.470Z,6.30
2018-01-15T21:38:03.063Z,6.20
2018-01-15T21:40:32.702Z,6.10
2018-01-15T21:43:01.526Z,6.00
2018-01-15T21:45:30.385Z,6.00
2018-01-15T21:47:59.317Z,6.00
2018-01-15T21:50:28.130Z,6.00
2018-01-15T21:52:57.730Z,5.90
2018-01-15T21:55:27.340Z,5.90
2018-01-15T21:57:56.952Z,5.90
2018-01-15T22:00:25.962Z,5.90
2018-01-15T22:02:54.778Z,5.90
2018-01-15T22:05:23.610Z,5.90
2018-01-15T22:07:53.206Z,5.70
2018-01-15T22:10:22.039Z,5.70
2018-01-15T22:12:50.901Z,5.70
2018-01-15T22:15:19.722Z,5.70
2018-01-15T22:17:48.691Z,5.70
2018-01-15T22:20:18.284Z,5.80
2018-01-15T22:22:47.894Z,5.90
2018-01-15T22:25:17.501Z,5.90
2018-01-15T22:27:47.088Z,5.90
2018-01-15T22:30:15.934Z,5.80
2018-01-15T22:32:44.779Z,5.90
2018-01-15T22:35:14.394Z,5.90
2018-01-15T22:37:44.001Z,5.90
2018-01-15T22:40:12.909Z,5.90
2018-01-15T22:42:41.738Z,6.00
2018-01-15T22:45:10.600Z,6.00
2018-01-15T22:47:39.461Z,6.10
2018-01-15T22:50:08.289Z,6.10
2018-01-15T22:52:37.890Z,6.20
2018-01-15T22:55:07.509Z,6.30
2018-01-15T22:57:37.130Z,6.40
2018-01-15T23:00:05.931Z,6.30
2018-01-15T23:02:34.768Z,6.40
2018-01-15T23:05:04.359Z,6.50
2018-01-15T23:07:33.194Z,6.40
2018-01-15T23:10:02.034Z,6.50
2018-01-15T23:12:30.874Z,6.50
2018-01-15T23:14:59.722Z,6.60
2018-01-15T23:17:28.546Z,6.60
2018-01-15T23:19:57.444Z,6.60
2018-01-15T23:22:26.287Z,6.70
2018-01-15T23:24:55.082Z,6.70
2018-01-15T23:27:23.925Z,6.70
2018-01-15T23:29:52.761Z,6.70
2018-01-15T23:32:21.572Z,6.70
2018-01-15T23:34:51.166Z,6.70
2018-01-15T23:37:20.814Z,6.70
2018-01-15T23:39:49.640Z,6.70
2018-01-15T23:42:18.894Z,6.80
2018-01-15T23:44:47.697Z,6.80
2018-01-15T23:47:16.562Z,6.80
2018-01-15T23:49:45.403Z,6.80
2018-01-15T23:52:14.213Z,6.80
2018-01-15T23:54:43.827Z,6.80
2018-01-15T23:57:13.421Z,6.80
2018-01-15T23:59:42.244Z,6.70
